La Puente, California
Current Conditions -  °F | °C
As of 6:53 PM on Sunday 23 Nov 2014 (Local Time) from KFUL Reporting Station
Clear Clear  
Wind Chill: 64°   Ceiling: Unl
Heat Index: 64°   Visibility: 10mi
Dew Point: 40°   Wind: 0mph
Humidity: 41%   Direction: NA
Pressure: 30.09"   Gusts: NA
Location:  34.02°N, 117.95°W
Report Text: KFUL 240253Z 00000KT 10SM CLR 18/04 A3009 RMK AO2 SLP189 T01780044 53011
Loading
Personal Weather Stations






























Interactive Weather Map New forecast layout! Learn more

10-Day Weather Forecast

Advertisements
Track Severe Weather on mobile